• Join FlightAware (Why Join?)
  • Login
  • US Flag 
07:17PM EDT


 

Airport Tracker/Info


-or-


 

Live Flight TrackerFlight Track Log ✈ SWA652 ✈ 10-Jun-2013 ✈ KCLE - KBWI

Flight Track Log - Related Links

Times and Time Zones

All times are in EDT time to prevent confusion due to time zone crossing. See the SWA652 flight status page for this flight to view local times or setup timezone preferences in your user account.

Time Position Orientation Groundspeed Altitude Reporting Facility
EDT Latitude Longitude Course Direction KTS MPH feet Rate Location/Type
09:33PM 41.3878 -81.8783 156° South 162 186 2,100  Level Cleveland Center
09:34PM 41.2967 -81.8242 114° Southeast 237 273 5,900 3,000 Climbing Cleveland Center
09:35PM 41.3426 -81.7623 114° Southeast  Level Estimated
09:35PM 41.2747 -81.7103 104° East 248 285 10,300  Level Cleveland Center
09:36PM 41.2364 -81.5908 113° Southeast 303 349 13,000 3,120 Climbing Cleveland Center
09:37PM 41.1936 -81.4661 114° Southeast 349 402 16,600 2,640 Climbing Cleveland Center
09:39PM 41.1097 -81.2253 115° Southeast 374 430 21,000 1,500 Climbing Cleveland Center
09:40PM 41.0478 -81.1200 128° Southeast 361 415 21,200 960 Climbing Cleveland Center
09:41PM 40.9836 -81.0067 127° Southeast 354 407 23,000 2,100 Climbing Cleveland Center
09:42PM 40.9047 -80.9239 142° Southeast 354 407 25,400 2,400 Climbing Cleveland Center
09:43PM 40.8067 -80.9069 173° South 335 386 27,900 1,800 Climbing Cleveland Center
09:44PM 40.7089 -80.8981 176° South 341 392 29,000 540 Climbing Cleveland Center
09:45PM 40.6089 -80.8867 175° South 353 406 29,000  Level Cleveland Center
09:46PM 40.5108 -80.8753 175° South 359 413 29,000 420 Level Cleveland Center
09:47PM 40.4086 -80.8639 175° South 364 419 29,900 960 Climbing Cleveland Center
09:48PM 40.3003 -80.8500 174° South 383 441 31,000 540 Climbing Cleveland Center
09:49PM 40.1900 -80.8358 174° South 396 456 31,000  Level Cleveland Center
09:50PM 40.0794 -80.8219 175° South 401 461 31,000  Level Cleveland Center
09:51PM 39.9961 -80.7239 138° Southeast 388 447 31,000  Level Cleveland Center
09:52PM 39.9672 -80.5586 103° East 395 455 31,000  Level Cleveland Center
09:53PM 39.9356 -80.3989 104° East 419 482 31,000  Level Cleveland Center
09:54PM 39.9083 -80.2528 104° East 443 510 31,000  Level Cleveland Center
09:55PM 39.8744 -80.0908 105° East 456 525 31,000  Level Cleveland Center
09:56PM 39.8403 -79.9261 105° East 461 531 31,000 -480 Level Cleveland Center
09:58PM 39.7811 -79.6389 105° East 462 532 29,700 -780 Descending Washington Center
09:59PM 39.7447 -79.4778 106° East 462 532 28,800 -960 Descending Washington Center
10:00PM 39.7144 -79.3197 104° East 462 532 27,800 -1,440 Descending Washington Center
10:01PM 39.6797 -79.1614 106° East 462 532 26,000 -1,620 Descending Washington Center
10:02PM 39.6467 -79.0061 105° East 457 526 24,700 -1,260 Descending Washington Center
10:03PM 39.6075 -78.8400 107° East 452 520 23,600 -1,080 Descending Washington Center
10:04PM 39.5739 -78.6903 106° East 441 507 22,600 -1,020 Descending Washington Center
10:05PM 39.5400 -78.5408 106° East 436 502 21,600 -1,620 Descending Washington Center
10:06PM 39.5081 -78.3969 106° East 425 489 19,500 -2,340 Descending Washington Center
10:07PM 39.4781 -78.2561 105° East 419 482 17,000 -2,220 Descending Washington Center
10:08PM 39.4475 -78.1286 107° East 395 455 15,000 -1,020 Descending Washington Center
10:09PM 39.4356 -77.9883 96° East 384 442 15,000  Level Washington Center
10:10PM 39.4383 -77.8489 88° East 379 436 15,000 -360 Level Washington Center
10:11PM 39.4408 -77.7119 89° East 379 436 14,300 -840 Descending Washington Center
10:12PM 39.4431 -77.5747 89° East 379 436 13,300 -960 Descending Washington Center
10:13PM 39.4433 -77.4406 90° East 379 436 12,400 -1,200 Descending Washington Center
10:14PM 39.4514 -77.3117 85° East 374 430 11,000 -1,080 Descending Washington Center
10:15PM 39.4667 -77.2667 66° East 358 412 11,000 -600 Level Potomac TRACON
10:16PM 39.4667 -77.1667 90° East 326 375 10,300 -1,140 Descending Potomac TRACON
10:16PM 39.4817 -77.0783 78° East 327 376 9,100 -1,500 Descending Washington Center
10:19PM 39.5167 -76.8333 79° East 300 345 5,800 -1,260 Descending Potomac TRACON
10:20PM 39.5167 -76.7333 90° East 262 302 5,200 -420 Descending Potomac TRACON
10:20PM 39.4667 -76.6833 142° Southeast 240 276 5,000 -540 Descending Potomac TRACON
10:22PM 39.4167 -76.6167 134° Southeast 246 283 4,200 -480 Descending Potomac TRACON
10:23PM 39.3667 -76.5500 134° Southeast 239 275 4,000 -120 Descending Potomac TRACON
10:24PM 39.3333 -76.4833 123° Southeast 238 274 4,000  Level Potomac TRACON
10:25PM 39.2667 -76.4667 169° South 219 252 4,000 -60 Level Potomac TRACON
10:25PM 39.2167 -76.4500 166° South 208 239 3,900 -540 Descending Potomac TRACON
10:26PM 39.1667 -76.4333 166° South 200 230 3,000 -480 Descending Potomac TRACON
10:27PM 39.1167 -76.4167 165° South 194 223 3,000  Level Potomac TRACON
10:28PM 39.0500 -76.4167 180° South 197 227 3,000  Level Potomac TRACON
10:29PM 39.0167 -76.4500 218° Southwest 180 207 3,000  Level Potomac TRACON
10:31PM 39.0167 -76.5167 270° West 195 224 3,000 -60 Level Potomac TRACON
10:31PM 39.0500 -76.5500 322° Northwest 175 201 2,900 -120 Descending Potomac TRACON